Terminal Aerodrome Forecast
Issued by NWS Rapid City, SD

Home | Current Version | Previous Version | Graphics & Text | Print | Product List | Glossary On
Versions: 1 2 3 4 5 6 7 8 9 10 11 12 13 14
000
FTUS43 KUNR 181120
TAFRAP
TAF
KRAP 181120Z 1812/1912 30006KT P6SM FEW200
     FM181800 16013KT P6SM SCT200
     FM190000 17008KT P6SM SCT200
     FM190500 18008KT P6SM BKN200 WS020/20045KT=

USA.gov is the U.S. government's official web portal to all federal, state and local government web resources and services.